sensor_id;sensor_type;location;lat;lon;timestamp;pressure;altitude;pressure_sealevel;temperature;humidity
23473;BME280;11909;52.516;13.564;2023-01-29T00:00:10;102103.47;;;-1.07;80.54
23473;BME280;11909;52.516;13.564;2023-01-29T00:02:38;102092.03;;;-1.09;80.97
23473;BME280;11909;52.516;13.564;2023-01-29T00:05:06;102093.88;;;-1.02;80.90
23473;BME280;11909;52.516;13.564;2023-01-29T00:07:52;102096.75;;;-1.11;81.17
23473;BME280;11909;52.516;13.564;2023-01-29T00:10:21;102099.09;;;-1.08;80.80
23473;BME280;11909;52.516;13.564;2023-01-29T00:12:49;102092.88;;;-1.17;81.33
23473;BME280;11909;52.516;13.564;2023-01-29T00:15:17;102097.09;;;-1.14;80.94
23473;BME280;11909;52.516;13.564;2023-01-29T00:17:46;102096.91;;;-1.21;81.85
23473;BME280;11909;52.516;13.564;2023-01-29T00:20:13;102091.03;;;-1.33;82.06
23473;BME280;11909;52.516;13.564;2023-01-29T00:22:42;102089.00;;;-1.14;81.86
23473;BME280;11909;52.516;13.564;2023-01-29T00:25:09;102098.75;;;-1.05;81.41
23473;BME280;11909;52.516;13.564;2023-01-29T00:27:39;102094.91;;;-1.11;81.20
23473;BME280;11909;52.516;13.564;2023-01-29T00:30:09;102093.88;;;-1.18;81.43
23473;BME280;11909;52.516;13.564;2023-01-29T00:32:38;102090.19;;;-1.09;81.38
23473;BME280;11909;52.516;13.564;2023-01-29T00:35:07;102087.66;;;-1.10;81.50
23473;BME280;11909;52.516;13.564;2023-01-29T00:37:36;102079.72;;;-1.04;81.88
23473;BME280;11909;52.516;13.564;2023-01-29T00:40:04;102073.34;;;-1.11;82.08
23473;BME280;11909;52.516;13.564;2023-01-29T00:42:32;102068.63;;;-1.09;81.80
23473;BME280;11909;52.516;13.564;2023-01-29T00:45:19;102069.97;;;-1.05;82.19
23473;BME280;11909;52.516;13.564;2023-01-29T00:47:47;102060.22;;;-1.14;82.87
23473;BME280;11909;52.516;13.564;2023-01-29T00:50:15;102064.94;;;-1.08;82.25
23473;BME280;11909;52.516;13.564;2023-01-29T00:52:43;102064.91;;;-1.16;82.42
23473;BME280;11909;52.516;13.564;2023-01-29T00:55:11;102059.69;;;-1.09;82.78
23473;BME280;11909;52.516;13.564;2023-01-29T00:57:39;102057.47;;;-0.97;81.87
23473;BME280;11909;52.516;13.564;2023-01-29T01:00:09;102054.44;;;-0.94;82.09
23473;BME280;11909;52.516;13.564;2023-01-29T01:02:39;102059.69;;;-1.09;82.02
23473;BME280;11909;52.516;13.564;2023-01-29T01:05:24;102063.91;;;-1.07;82.32
23473;BME280;11909;52.516;13.564;2023-01-29T01:07:55;102063.72;;;-1.05;82.45
23473;BME280;11909;52.516;13.564;2023-01-29T01:10:25;102060.88;;;-1.04;82.80
23473;BME280;11909;52.516;13.564;2023-01-29T01:12:53;102065.59;;;-1.06;83.10
23473;BME280;11909;52.516;13.564;2023-01-29T01:15:23;102060.03;;;-0.96;82.54
23473;BME280;11909;52.516;13.564;2023-01-29T01:17:53;102067.75;;;-0.93;82.28
23473;BME280;11909;52.516;13.564;2023-01-29T01:20:21;102063.88;;;-0.98;82.55
23473;BME280;11909;52.516;13.564;2023-01-29T01:22:49;102065.22;;;-0.94;82.58
23473;BME280;11909;52.516;13.564;2023-01-29T01:25:17;102067.75;;;-0.93;82.78
23473;BME280;11909;52.516;13.564;2023-01-29T01:27:44;102066.59;;;-0.90;82.02
23473;BME280;11909;52.516;13.564;2023-01-29T01:30:14;102058.16;;;-0.95;82.79
23473;BME280;11909;52.516;13.564;2023-01-29T01:32:43;102058.19;;;-1.04;82.96
23473;BME280;11909;52.516;13.564;2023-01-29T01:35:12;102060.19;;;-0.89;82.72
23473;BME280;11909;52.516;13.564;2023-01-29T01:37:40;102052.75;;;-0.95;83.54
23473;BME280;11909;52.516;13.564;2023-01-29T01:40:12;102054.25;;;-0.84;82.75
23473;BME280;11909;52.516;13.564;2023-01-29T01:42:45;102051.22;;;-0.81;82.92
23473;BME280;11909;52.516;13.564;2023-01-29T01:45:18;102055.63;;;-0.89;83.18
23473;BME280;11909;52.516;13.564;2023-01-29T01:47:50;102057.66;;;-0.91;83.55
23473;BME280;11909;52.516;13.564;2023-01-29T01:50:24;102057.31;;;-0.88;83.75
23473;BME280;11909;52.516;13.564;2023-01-29T01:52:57;102062.34;;;-0.76;83.42
23473;BME280;11909;52.516;13.564;2023-01-29T01:55:27;102056.97;;;-0.76;83.64
23473;BME280;11909;52.516;13.564;2023-01-29T01:58:05;102051.75;;;-0.86;83.60
23473;BME280;11909;52.516;13.564;2023-01-29T02:00:35;102064.22;;;-0.85;84.19
23473;BME280;11909;52.516;13.564;2023-01-29T02:03:03;102049.06;;;-0.94;84.39
23473;BME280;11909;52.516;13.564;2023-01-29T02:05:52;102041.16;;;-0.96;84.71
23473;BME280;11909;52.516;13.564;2023-01-29T02:08:43;102034.38;;;-0.83;84.98
23473;BME280;11909;52.516;13.564;2023-01-29T02:11:31;102036.59;;;-0.87;85.31
23473;BME280;11909;52.516;13.564;2023-01-29T02:13:58;102027.00;;;-0.90;85.18
23473;BME280;11909;52.516;13.564;2023-01-29T02:16:26;102026.63;;;-0.87;85.56
23473;BME280;11909;52.516;13.564;2023-01-29T02:18:54;102027.19;;;-0.91;85.66
23473;BME280;11909;52.516;13.564;2023-01-29T02:21:41;102028.66;;;-0.80;84.90
23473;BME280;11909;52.516;13.564;2023-01-29T02:24:36;102036.06;;;-0.82;85.41
23473;BME280;11909;52.516;13.564;2023-01-29T02:27:09;102021.78;;;-0.91;85.82
23473;BME280;11909;52.516;13.564;2023-01-29T02:29:48;102022.41;;;-0.81;85.74
23473;BME280;11909;52.516;13.564;2023-01-29T02:32:27;102016.38;;;-0.83;85.71
23473;BME280;11909;52.516;13.564;2023-01-29T02:35:09;102014.84;;;-0.85;85.28
23473;BME280;11909;52.516;13.564;2023-01-29T02:37:57;102015.53;;;-0.92;85.99
23473;BME280;11909;52.516;13.564;2023-01-29T02:40:30;102016.03;;;-0.96;85.72
23473;BME280;11909;52.516;13.564;2023-01-29T02:43:07;102016.41;;;-0.91;86.03
23473;BME280;11909;52.516;13.564;2023-01-29T02:45:44;102009.84;;;-0.97;86.81
23473;BME280;11909;52.516;13.564;2023-01-29T02:48:17;102017.41;;;-0.92;86.75
23473;BME280;11909;52.516;13.564;2023-01-29T02:50:49;102019.56;;;-0.88;86.48
23473;BME280;11909;52.516;13.564;2023-01-29T02:53:25;102016.59;;;-1.01;86.90
23473;BME280;11909;52.516;13.564;2023-01-29T02:55:57;102010.47;;;-0.87;85.65
23473;BME280;11909;52.516;13.564;2023-01-29T02:58:30;102006.28;;;-0.89;85.91
23473;BME280;11909;52.516;13.564;2023-01-29T03:01:03;101996.69;;;-0.92;85.82
23473;BME280;11909;52.516;13.564;2023-01-29T03:03:37;102006.63;;;-0.92;85.70
23473;BME280;11909;52.516;13.564;2023-01-29T03:06:10;101999.53;;;-0.93;85.84
23473;BME280;11909;52.516;13.564;2023-01-29T03:08:49;102008.63;;;-0.86;86.13
23473;BME280;11909;52.516;13.564;2023-01-29T03:11:20;102002.38;;;-0.87;85.67
23473;BME280;11909;52.516;13.564;2023-01-29T03:13:50;102009.28;;;-0.84;85.89
23473;BME280;11909;52.516;13.564;2023-01-29T03:16:25;101990.28;;;-0.91;85.81
23473;BME280;11909;52.516;13.564;2023-01-29T03:19:01;101998.34;;;-0.91;86.47
23473;BME280;11909;52.516;13.564;2023-01-29T03:22:30;101988.25;;;-0.89;86.13
23473;BME280;11909;52.516;13.564;2023-01-29T03:24:58;101980.00;;;-0.87;86.42
23473;BME280;11909;52.516;13.564;2023-01-29T03:27:48;101987.38;;;-0.81;86.35
23473;BME280;11909;52.516;13.564;2023-01-29T03:30:40;101981.63;;;-0.78;86.08
23473;BME280;11909;52.516;13.564;2023-01-29T03:33:30;101979.28;;;-0.81;86.65
23473;BME280;11909;52.516;13.564;2023-01-29T03:36:02;101979.94;;;-0.79;86.86
23473;BME280;11909;52.516;13.564;2023-01-29T03:38:32;101968.97;;;-0.69;86.59
23473;BME280;11909;52.516;13.564;2023-01-29T03:41:04;101962.06;;;-0.72;86.23
23473;BME280;11909;52.516;13.564;2023-01-29T03:43:39;101963.94;;;-0.72;86.56
23473;BME280;11909;52.516;13.564;2023-01-29T03:46:18;101956.84;;;-0.73;86.69
23473;BME280;11909;52.516;13.564;2023-01-29T03:49:00;101955.84;;;-0.72;87.10
23473;BME280;11909;52.516;13.564;2023-01-29T03:51:33;101947.59;;;-0.79;86.95
23473;BME280;11909;52.516;13.564;2023-01-29T03:54:08;101947.59;;;-0.79;86.96
23473;BME280;11909;52.516;13.564;2023-01-29T03:56:48;101950.66;;;-0.82;87.24
23473;BME280;11909;52.516;13.564;2023-01-29T03:59:31;101927.56;;;-0.76;86.87
23473;BME280;11909;52.516;13.564;2023-01-29T04:02:02;101926.09;;;-0.87;87.70
23473;BME280;11909;52.516;13.564;2023-01-29T04:04:35;101920.16;;;-0.82;87.26
23473;BME280;11909;52.516;13.564;2023-01-29T04:07:07;101918.16;;;-0.89;87.98
23473;BME280;11909;52.516;13.564;2023-01-29T04:09:41;101914.09;;;-0.84;87.93
23473;BME280;11909;52.516;13.564;2023-01-29T04:12:14;101903.19;;;-0.91;88.44
23473;BME280;11909;52.516;13.564;2023-01-29T04:14:46;101905.00;;;-0.83;88.39
23473;BME280;11909;52.516;13.564;2023-01-29T04:17:19;101898.28;;;-0.88;88.13
23473;BME280;11909;52.516;13.564;2023-01-29T04:19:50;101891.22;;;-0.89;87.96
23473;BME280;11909;52.516;13.564;2023-01-29T04:22:25;101890.41;;;-0.97;88.75
23473;BME280;11909;52.516;13.564;2023-01-29T04:24:54;101888.00;;;-0.84;88.05
23473;BME280;11909;52.516;13.564;2023-01-29T04:27:38;101878.41;;;-0.87;88.51
23473;BME280;11909;52.516;13.564;2023-01-29T04:30:18;101887.69;;;-0.89;88.12
23473;BME280;11909;52.516;13.564;2023-01-29T04:32:58;101875.78;;;-1.03;89.17
23473;BME280;11909;52.516;13.564;2023-01-29T04:35:39;101873.88;;;-0.94;90.05
23473;BME280;11909;52.516;13.564;2023-01-29T04:38:14;101876.19;;;-0.83;89.46
23473;BME280;11909;52.516;13.564;2023-01-29T04:40:50;101862.78;;;-0.91;90.03
23473;BME280;11909;52.516;13.564;2023-01-29T04:43:25;101873.66;;;-0.84;90.42
23473;BME280;11909;52.516;13.564;2023-01-29T04:46:04;101865.56;;;-0.84;89.61
23473;BME280;11909;52.516;13.564;2023-01-29T04:48:44;101870.59;;;-0.81;90.74
23473;BME280;11909;52.516;13.564;2023-01-29T04:51:21;101871.31;;;-0.79;90.35
23473;BME280;11909;52.516;13.564;2023-01-29T04:53:56;101872.19;;;-0.95;91.92
23473;BME280;11909;52.516;13.564;2023-01-29T04:56:30;101870.66;;;-0.90;92.26
23473;BME280;11909;52.516;13.564;2023-01-29T04:59:05;101863.53;;;-0.82;92.39
23473;BME280;11909;52.516;13.564;2023-01-29T05:01:34;101870.44;;;-0.80;92.35
23473;BME280;11909;52.516;13.564;2023-01-29T05:04:05;101862.88;;;-0.84;93.00
23473;BME280;11909;52.516;13.564;2023-01-29T05:06:36;101861.09;;;-0.92;94.45
23473;BME280;11909;52.516;13.564;2023-01-29T05:09:06;101866.78;;;-0.87;95.18
23473;BME280;11909;52.516;13.564;2023-01-29T05:11:35;101872.84;;;-0.85;95.06
23473;BME280;11909;52.516;13.564;2023-01-29T05:14:05;101876.13;;;-0.75;95.00
23473;BME280;11909;52.516;13.564;2023-01-29T05:16:37;101863.69;;;-0.76;95.24
23473;BME280;11909;52.516;13.564;2023-01-29T05:19:08;101865.06;;;-0.80;95.73
23473;BME280;11909;52.516;13.564;2023-01-29T05:21:40;101863.38;;;-0.81;96.48
23473;BME280;11909;52.516;13.564;2023-01-29T05:24:11;101865.94;;;-0.88;97.35
23473;BME280;11909;52.516;13.564;2023-01-29T05:26:41;101864.91;;;-0.87;98.18
23473;BME280;11909;52.516;13.564;2023-01-29T05:29:26;101860.84;;;-0.82;98.78
23473;BME280;11909;52.516;13.564;2023-01-29T05:31:54;101858.56;;;-0.94;99.43
23473;BME280;11909;52.516;13.564;2023-01-29T05:34:22;101862.53;;;-0.81;99.66
23473;BME280;11909;52.516;13.564;2023-01-29T05:36:51;101868.47;;;-0.86;100.00
23473;BME280;11909;52.516;13.564;2023-01-29T05:39:18;101863.03;;;-0.78;100.00
23473;BME280;11909;52.516;13.564;2023-01-29T05:41:47;101863.75;;;-0.84;100.00
23473;BME280;11909;52.516;13.564;2023-01-29T05:44:15;101860.19;;;-0.84;100.00
23473;BME280;11909;52.516;13.564;2023-01-29T05:46:42;101847.94;;;-0.95;100.00
23473;BME280;11909;52.516;13.564;2023-01-29T05:49:11;101864.13;;;-0.95;100.00
23473;BME280;11909;52.516;13.564;2023-01-29T05:51:39;101863.22;;;-0.79;100.00
23473;BME280;11909;52.516;13.564;2023-01-29T05:54:10;101855.00;;;-0.86;100.00
23473;BME280;11909;52.516;13.564;2023-01-29T05:56:38;101859.00;;;-0.82;100.00
23473;BME280;11909;52.516;13.564;2023-01-29T05:59:06;101876.00;;;-0.81;100.00
23473;BME280;11909;52.516;13.564;2023-01-29T06:01:33;101875.22;;;-0.90;100.00
23473;BME280;11909;52.516;13.564;2023-01-29T06:04:01;101873.81;;;-0.78;100.00
23473;BME280;11909;52.516;13.564;2023-01-29T06:06:29;101872.69;;;-0.92;100.00
23473;BME280;11909;52.516;13.564;2023-01-29T06:08:56;101879.97;;;-1.01;100.00
23473;BME280;11909;52.516;13.564;2023-01-29T06:11:25;101889.00;;;-0.85;100.00
23473;BME280;11909;52.516;13.564;2023-01-29T06:13:53;101883.78;;;-0.87;100.00
23473;BME280;11909;52.516;13.564;2023-01-29T06:16:21;101883.31;;;-0.90;100.00
23473;BME280;11909;52.516;13.564;2023-01-29T06:18:49;101878.59;;;-0.88;100.00
23473;BME280;11909;52.516;13.564;2023-01-29T06:21:16;101884.44;;;-0.84;100.00
23473;BME280;11909;52.516;13.564;2023-01-29T06:23:45;101887.13;;;-0.84;100.00
23473;BME280;11909;52.516;13.564;2023-01-29T06:26:14;101888.81;;;-0.83;100.00
23473;BME280;11909;52.516;13.564;2023-01-29T06:28:43;101883.25;;;-0.82;100.00
23473;BME280;11909;52.516;13.564;2023-01-29T06:31:11;101877.56;;;-0.87;100.00
23473;BME280;11909;52.516;13.564;2023-01-29T06:33:59;101866.44;;;-0.84;100.00
23473;BME280;11909;52.516;13.564;2023-01-29T06:36:26;101864.63;;;-0.92;100.00
23473;BME280;11909;52.516;13.564;2023-01-29T06:38:54;101878.00;;;-0.75;100.00
23473;BME280;11909;52.516;13.564;2023-01-29T06:41:22;101861.97;;;-0.68;100.00
23473;BME280;11909;52.516;13.564;2023-01-29T06:43:52;101874.44;;;-0.67;100.00
23473;BME280;11909;52.516;13.564;2023-01-29T06:46:20;101867.97;;;-0.90;100.00
23473;BME280;11909;52.516;13.564;2023-01-29T06:48:47;101872.31;;;-0.80;100.00
23473;BME280;11909;52.516;13.564;2023-01-29T06:51:15;101865.91;;;-0.79;100.00
23473;BME280;11909;52.516;13.564;2023-01-29T06:53:43;101873.31;;;-0.81;100.00
23473;BME280;11909;52.516;13.564;2023-01-29T06:56:12;101889.47;;;-0.73;100.00
23473;BME280;11909;52.516;13.564;2023-01-29T06:58:40;101885.81;;;-0.80;100.00
23473;BME280;11909;52.516;13.564;2023-01-29T07:01:10;101893.47;;;-0.69;100.00
23473;BME280;11909;52.516;13.564;2023-01-29T07:03:58;101890.63;;;-0.76;100.00
23473;BME280;11909;52.516;13.564;2023-01-29T07:06:27;101883.31;;;-0.90;100.00
23473;BME280;11909;52.516;13.564;2023-01-29T07:08:54;101878.41;;;-0.87;100.00
23473;BME280;11909;52.516;13.564;2023-01-29T07:11:23;101874.53;;;-0.84;100.00
23473;BME280;11909;52.516;13.564;2023-01-29T07:13:50;101873.28;;;-0.73;100.00
23473;BME280;11909;52.516;13.564;2023-01-29T07:16:19;101871.09;;;-0.78;100.00
23473;BME280;11909;52.516;13.564;2023-01-29T07:18:47;101867.66;;;-0.63;100.00
23473;BME280;11909;52.516;13.564;2023-01-29T07:21:15;101860.63;;;-0.73;100.00
23473;BME280;11909;52.516;13.564;2023-01-29T07:23:43;101854.28;;;-0.80;100.00
23473;BME280;11909;52.516;13.564;2023-01-29T07:26:10;101864.84;;;-0.70;100.00
23473;BME280;11909;52.516;13.564;2023-01-29T07:28:39;101867.69;;;-0.72;100.00
23473;BME280;11909;52.516;13.564;2023-01-29T07:31:07;101884.22;;;-0.75;100.00
23473;BME280;11909;52.516;13.564;2023-01-29T07:33:39;101876.59;;;-0.63;100.00
23473;BME280;11909;52.516;13.564;2023-01-29T07:36:08;101872.75;;;-0.68;100.00
23473;BME280;11909;52.516;13.564;2023-01-29T07:38:35;101877.78;;;-0.65;100.00
23473;BME280;11909;52.516;13.564;2023-01-29T07:41:03;101864.41;;;-0.59;100.00
23473;BME280;11909;52.516;13.564;2023-01-29T07:43:31;101848.06;;;-0.57;100.00
23473;BME280;11909;52.516;13.564;2023-01-29T07:46:00;101868.72;;;-0.73;100.00
23473;BME280;11909;52.516;13.564;2023-01-29T07:48:28;101855.88;;;-0.62;100.00
23473;BME280;11909;52.516;13.564;2023-01-29T07:50:58;101842.19;;;-0.61;100.00
23473;BME280;11909;52.516;13.564;2023-01-29T07:53:26;101830.44;;;-0.68;100.00
23473;BME280;11909;52.516;13.564;2023-01-29T07:55:54;101833.75;;;-0.57;100.00
23473;BME280;11909;52.516;13.564;2023-01-29T07:58:22;101828.38;;;-0.57;100.00
23473;BME280;11909;52.516;13.564;2023-01-29T08:00:50;101836.09;;;-0.54;100.00
23473;BME280;11909;52.516;13.564;2023-01-29T08:03:18;101838.59;;;-0.53;100.00
23473;BME280;11909;52.516;13.564;2023-01-29T08:05:47;101839.97;;;-0.57;100.00
23473;BME280;11909;52.516;13.564;2023-01-29T08:08:16;101840.56;;;-0.47;100.00
23473;BME280;11909;52.516;13.564;2023-01-29T08:10:44;101823.28;;;-0.52;100.00
23473;BME280;11909;52.516;13.564;2023-01-29T08:13:12;101828.06;;;-0.39;100.00
23473;BME280;11909;52.516;13.564;2023-01-29T08:15:42;101832.31;;;-0.45;100.00
23473;BME280;11909;52.516;13.564;2023-01-29T08:18:10;101833.47;;;-0.39;100.00
23473;BME280;11909;52.516;13.564;2023-01-29T08:20:38;101840.25;;;-0.44;100.00
23473;BME280;11909;52.516;13.564;2023-01-29T08:23:09;101834.47;;;-0.40;100.00
23473;BME280;11909;52.516;13.564;2023-01-29T08:25:40;101825.38;;;-0.39;100.00
23473;BME280;11909;52.516;13.564;2023-01-29T08:28:08;101824.47;;;-0.32;100.00
23473;BME280;11909;52.516;13.564;2023-01-29T08:30:37;101832.91;;;-0.35;100.00
23473;BME280;11909;52.516;13.564;2023-01-29T08:33:05;101832.47;;;-0.23;100.00
23473;BME280;11909;52.516;13.564;2023-01-29T08:35:33;101826.19;;;-0.16;100.00
23473;BME280;11909;52.516;13.564;2023-01-29T08:38:01;101818.47;;;-0.19;100.00
23473;BME280;11909;52.516;13.564;2023-01-29T08:40:31;101818.13;;;-0.24;100.00
23473;BME280;11909;52.516;13.564;2023-01-29T08:43:01;101817.97;;;-0.22;100.00
23473;BME280;11909;52.516;13.564;2023-01-29T08:45:34;101818.50;;;-0.27;100.00
23473;BME280;11909;52.516;13.564;2023-01-29T08:48:03;101828.09;;;-0.24;100.00
23473;BME280;11909;52.516;13.564;2023-01-29T08:50:30;101829.13;;;-0.25;100.00
23473;BME280;11909;52.516;13.564;2023-01-29T08:53:00;101824.56;;;-0.25;100.00
23473;BME280;11909;52.516;13.564;2023-01-29T08:55:29;101823.53;;;-0.24;100.00
23473;BME280;11909;52.516;13.564;2023-01-29T08:57:56;101826.19;;;-0.16;100.00
23473;BME280;11909;52.516;13.564;2023-01-29T09:00:25;101814.38;;;-0.15;100.00
23473;BME280;11909;52.516;13.564;2023-01-29T09:02:53;101811.47;;;-0.13;100.00
23473;BME280;11909;52.516;13.564;2023-01-29T09:05:21;101808.44;;;-0.10;100.00
23473;BME280;11909;52.516;13.564;2023-01-29T09:07:48;101814.53;;;-0.16;100.00
23473;BME280;11909;52.516;13.564;2023-01-29T09:10:19;101811.28;;;-0.11;100.00
23473;BME280;11909;52.516;13.564;2023-01-29T09:12:47;101801.03;;;-0.16;100.00
23473;BME280;11909;52.516;13.564;2023-01-29T09:15:14;101807.03;;;-0.06;100.00
23473;BME280;11909;52.516;13.564;2023-01-29T09:17:44;101805.78;;;-0.18;100.00
23473;BME280;11909;52.516;13.564;2023-01-29T09:20:12;101792.13;;;-0.17;100.00
23473;BME280;11909;52.516;13.564;2023-01-29T09:22:39;101808.19;;;0.00;100.00
23473;BME280;11909;52.516;13.564;2023-01-29T09:25:08;101808.72;;;-0.05;100.00
23473;BME280;11909;52.516;13.564;2023-01-29T09:27:36;101818.00;;;-0.07;100.00
23473;BME280;11909;52.516;13.564;2023-01-29T09:30:05;101813.84;;;-0.10;100.00
23473;BME280;11909;52.516;13.564;2023-01-29T09:32:33;101811.22;;;-0.03;100.00
23473;BME280;11909;52.516;13.564;2023-01-29T09:35:22;101814.28;;;-0.06;100.00
23473;BME280;11909;52.516;13.564;2023-01-29T09:37:50;101804.34;;;-0.06;100.00
23473;BME280;11909;52.516;13.564;2023-01-29T09:40:24;101797.44;;;0.07;100.00
23473;BME280;11909;52.516;13.564;2023-01-29T09:42:57;101791.41;;;0.05;100.00
23473;BME280;11909;52.516;13.564;2023-01-29T09:45:28;101789.84;;;0.10;100.00
23473;BME280;11909;52.516;13.564;2023-01-29T09:47:59;101790.31;;;0.14;100.00
23473;BME280;11909;52.516;13.564;2023-01-29T09:50:31;101786.38;;;0.17;100.00
23473;BME280;11909;52.516;13.564;2023-01-29T09:53:06;101780.34;;;0.14;100.00
23473;BME280;11909;52.516;13.564;2023-01-29T09:55:41;101777.25;;;0.33;100.00
23473;BME280;11909;52.516;13.564;2023-01-29T09:58:17;101769.09;;;0.26;100.00
23473;BME280;11909;52.516;13.564;2023-01-29T10:00:55;101768.63;;;0.22;100.00
23473;BME280;11909;52.516;13.564;2023-01-29T10:03:40;101771.41;;;0.29;100.00
23473;BME280;11909;52.516;13.564;2023-01-29T10:06:21;101767.13;;;0.20;100.00
23473;BME280;11909;52.516;13.564;2023-01-29T10:09:26;101767.31;;;0.33;100.00
23473;BME280;11909;52.516;13.564;2023-01-29T10:12:12;101763.84;;;0.39;100.00
23473;BME280;11909;52.516;13.564;2023-01-29T10:14:48;101752.03;;;0.40;100.00
23473;BME280;11909;52.516;13.564;2023-01-29T10:17:34;101747.84;;;0.38;100.00
23473;BME280;11909;52.516;13.564;2023-01-29T10:20:19;101741.22;;;0.40;100.00
23473;BME280;11909;52.516;13.564;2023-01-29T10:23:05;101741.41;;;0.54;100.00
23473;BME280;11909;52.516;13.564;2023-01-29T10:25:38;101746.53;;;0.49;100.00
23473;BME280;11909;52.516;13.564;2023-01-29T10:28:15;101750.16;;;0.56;100.00
23473;BME280;11909;52.516;13.564;2023-01-29T10:30:47;101760.47;;;0.67;100.00
23473;BME280;11909;52.516;13.564;2023-01-29T10:33:18;101757.31;;;0.64;100.00
23473;BME280;11909;52.516;13.564;2023-01-29T10:35:52;101757.75;;;0.67;100.00
23473;BME280;11909;52.516;13.564;2023-01-29T10:38:30;101749.31;;;0.70;100.00
23473;BME280;11909;52.516;13.564;2023-01-29T10:41:13;101753.38;;;0.81;100.00
23473;BME280;11909;52.516;13.564;2023-01-29T10:43:53;101744.25;;;0.82;100.00
23473;BME280;11909;52.516;13.564;2023-01-29T10:46:35;101743.16;;;0.98;100.00
23473;BME280;11909;52.516;13.564;2023-01-29T10:49:14;101734.19;;;0.98;100.00
23473;BME280;11909;52.516;13.564;2023-01-29T10:51:57;101728.38;;;0.94;100.00
23473;BME280;11909;52.516;13.564;2023-01-29T10:54:42;101737.75;;;0.98;100.00
23473;BME280;11909;52.516;13.564;2023-01-29T10:57:19;101721.78;;;1.04;100.00
23473;BME280;11909;52.516;13.564;2023-01-29T11:00:01;101721.78;;;1.04;100.00
23473;BME280;11909;52.516;13.564;2023-01-29T11:02:32;101713.63;;;1.19;100.00
23473;BME280;11909;52.516;13.564;2023-01-29T11:05:00;101712.41;;;1.21;100.00
23473;BME280;11909;52.516;13.564;2023-01-29T11:07:28;101706.34;;;1.19;100.00
23473;BME280;11909;52.516;13.564;2023-01-29T11:10:02;101699.44;;;1.17;100.00
23473;BME280;11909;52.516;13.564;2023-01-29T11:12:36;101696.91;;;1.37;100.00
23473;BME280;11909;52.516;13.564;2023-01-29T11:15:06;101694.03;;;1.38;100.00
23473;BME280;11909;52.516;13.564;2023-01-29T11:18:00;101698.78;;;1.36;100.00
23473;BME280;11909;52.516;13.564;2023-01-29T11:20:29;101699.09;;;1.48;99.78
23473;BME280;11909;52.516;13.564;2023-01-29T11:22:58;101695.59;;;1.54;99.59
23473;BME280;11909;52.516;13.564;2023-01-29T11:25:27;101691.84;;;1.55;98.38
23473;BME280;11909;52.516;13.564;2023-01-29T11:27:59;101682.13;;;1.61;98.83
23473;BME280;11909;52.516;13.564;2023-01-29T11:30:29;101684.25;;;1.66;97.89
23473;BME280;11909;52.516;13.564;2023-01-29T11:33:05;101678.84;;;1.66;98.10
23473;BME280;11909;52.516;13.564;2023-01-29T11:35:35;101676.78;;;1.68;97.90
23473;BME280;11909;52.516;13.564;2023-01-29T11:38:13;101671.59;;;1.73;98.56
23473;BME280;11909;52.516;13.564;2023-01-29T11:40:45;101663.13;;;1.83;96.94
23473;BME280;11909;52.516;13.564;2023-01-29T11:43:21;101661.88;;;1.85;96.79
23473;BME280;11909;52.516;13.564;2023-01-29T11:45:50;101663.56;;;1.93;95.97
23473;BME280;11909;52.516;13.564;2023-01-29T11:48:20;101664.44;;;1.94;94.44
23473;BME280;11909;52.516;13.564;2023-01-29T11:50:52;101659.41;;;1.91;95.55
23473;BME280;11909;52.516;13.564;2023-01-29T11:53:30;101667.56;;;1.97;94.80
23473;BME280;11909;52.516;13.564;2023-01-29T11:56:12;101655.28;;;1.95;94.14
23473;BME280;11909;52.516;13.564;2023-01-29T11:58:42;101660.50;;;2.03;93.89
23473;BME280;11909;52.516;13.564;2023-01-29T12:01:12;101651.59;;;2.09;92.44
23473;BME280;11909;52.516;13.564;2023-01-29T12:03:44;101656.56;;;2.06;91.39
23473;BME280;11909;52.516;13.564;2023-01-29T12:06:17;101646.19;;;2.09;91.73
23473;BME280;11909;52.516;13.564;2023-01-29T12:08:53;101645.91;;;1.97;91.43
23473;BME280;11909;52.516;13.564;2023-01-29T12:11:28;101641.91;;;1.93;91.21
23473;BME280;11909;52.516;13.564;2023-01-29T12:13:58;101627.19;;;2.03;91.60
23473;BME280;11909;52.516;13.564;2023-01-29T12:16:29;101629.50;;;2.06;90.87
23473;BME280;11909;52.516;13.564;2023-01-29T12:19:06;101621.59;;;2.11;90.91
23473;BME280;11909;52.516;13.564;2023-01-29T12:21:44;101616.81;;;2.13;91.01
23473;BME280;11909;52.516;13.564;2023-01-29T12:24:24;101621.44;;;2.26;90.42
23473;BME280;11909;52.516;13.564;2023-01-29T12:27:03;101622.44;;;2.18;89.95
23473;BME280;11909;52.516;13.564;2023-01-29T12:29:41;101618.50;;;2.21;89.86
23473;BME280;11909;52.516;13.564;2023-01-29T12:32:22;101610.59;;;2.26;89.81
23473;BME280;11909;52.516;13.564;2023-01-29T12:34:57;101617.69;;;2.27;89.41
23473;BME280;11909;52.516;13.564;2023-01-29T12:37:36;101601.19;;;2.15;89.75
23473;BME280;11909;52.516;13.564;2023-01-29T12:40:11;101590.81;;;2.25;89.80
23473;BME280;11909;52.516;13.564;2023-01-29T12:42:42;101594.16;;;2.27;88.41
23473;BME280;11909;52.516;13.564;2023-01-29T12:45:16;101597.09;;;2.33;88.98
23473;BME280;11909;52.516;13.564;2023-01-29T12:47:47;101585.81;;;2.22;88.71
23473;BME280;11909;52.516;13.564;2023-01-29T12:50:20;101578.50;;;2.23;89.15
23473;BME280;11909;52.516;13.564;2023-01-29T12:52:50;101577.06;;;2.20;89.91
23473;BME280;11909;52.516;13.564;2023-01-29T12:55:23;101597.06;;;2.26;89.72
23473;BME280;11909;52.516;13.564;2023-01-29T12:57:56;101580.19;;;2.24;89.82
23473;BME280;11909;52.516;13.564;2023-01-29T13:00:26;101597.72;;;2.35;89.02
23473;BME280;11909;52.516;13.564;2023-01-29T13:02:59;101593.94;;;2.29;88.78
23473;BME280;11909;52.516;13.564;2023-01-29T13:05:36;101602.06;;;2.29;89.59